createdAt,value
2018-06-16T00:00:52.942Z,100055.52
2018-06-16T00:03:56.115Z,100049.42
2018-06-16T00:06:59.928Z,100055.18
2018-06-16T00:10:03.028Z,100051.05
2018-06-16T00:13:06.067Z,100063.23
2018-06-16T00:16:09.137Z,100062.56
2018-06-16T00:19:12.080Z,100057.96
2018-06-16T00:22:15.148Z,100057.00
2018-06-16T00:25:18.109Z,100058.16
2018-06-16T00:28:21.061Z,100059.02
2018-06-16T00:31:24.039Z,100054.43
2018-06-16T00:34:27.005Z,100051.27
2018-06-16T00:37:29.960Z,100047.39
2018-06-16T00:40:32.912Z,100044.16
2018-06-16T00:43:35.871Z,100043.21
2018-06-16T00:46:38.846Z,100044.85
2018-06-16T00:49:41.900Z,100046.20
2018-06-16T00:52:44.864Z,100045.16
2018-06-16T00:55:47.829Z,100043.16
2018-06-16T00:58:50.801Z,100042.21
2018-06-16T01:01:53.746Z,100042.60
2018-06-16T01:04:56.705Z,100042.39
2018-06-16T01:07:59.681Z,100036.23
2018-06-16T01:11:02.645Z,100036.74
2018-06-16T01:14:05.624Z,100033.75
2018-06-16T01:17:08.611Z,100038.19
2018-06-16T01:20:11.605Z,100037.70
2018-06-16T01:23:14.573Z,100039.27
2018-06-16T01:26:17.536Z,100042.03
2018-06-16T01:29:20.482Z,100040.24
2018-06-16T01:32:23.439Z,100039.08
2018-06-16T01:35:26.403Z,100033.52
2018-06-16T01:38:29.363Z,100041.97
2018-06-16T01:41:32.356Z,100038.41
2018-06-16T01:44:35.296Z,100036.73
2018-06-16T01:47:38.303Z,100038.33
2018-06-16T01:50:41.249Z,100043.11
2018-06-16T01:53:44.197Z,100035.44
2018-06-16T01:56:47.379Z,100040.03
2018-06-16T01:59:50.344Z,100035.91
2018-06-16T02:02:53.301Z,100038.60
2018-06-16T02:05:56.269Z,100046.09
2018-06-16T02:08:59.205Z,100032.83
2018-06-16T02:12:02.153Z,100036.20
2018-06-16T02:15:05.673Z,100035.34
2018-06-16T02:18:08.669Z,100029.58
2018-06-16T02:21:11.607Z,100021.81
2018-06-16T02:24:14.564Z,100033.59
2018-06-16T02:27:17.532Z,100040.58
2018-06-16T02:30:20.517Z,100043.86
2018-06-16T02:33:23.469Z,100041.45
2018-06-16T02:36:26.431Z,100033.47
2018-06-16T02:39:29.405Z,100036.65
2018-06-16T02:42:32.384Z,100038.86
2018-06-16T02:45:35.345Z,100036.53
2018-06-16T02:48:38.283Z,100037.69
2018-06-16T02:51:41.297Z,100029.84
2018-06-16T02:54:44.202Z,100035.38
2018-06-16T02:57:47.764Z,100031.55
2018-06-16T03:00:50.824Z,100028.58
2018-06-16T03:03:54.236Z,100034.42
2018-06-16T03:06:57.238Z,100031.84
2018-06-16T03:10:00.181Z,100024.73
2018-06-16T03:13:03.138Z,100030.31
2018-06-16T03:16:12.913Z,100022.81
2018-06-16T03:19:15.830Z,100020.78
2018-06-16T03:22:18.785Z,100020.58
2018-06-16T03:25:21.728Z,100022.52
2018-06-16T03:28:24.631Z,100016.48
2018-06-16T03:31:27.538Z,100017.72
2018-06-16T03:34:30.479Z,100017.15
2018-06-16T03:37:33.422Z,100019.36
2018-06-16T03:40:36.381Z,100014.28
2018-06-16T03:43:39.313Z,100018.77
2018-06-16T03:46:42.241Z,100019.65
2018-06-16T03:49:45.156Z,100017.23
2018-06-16T03:52:48.118Z,100021.74
2018-06-16T03:55:51.034Z,100012.06
2018-06-16T03:58:53.966Z,100015.33
2018-06-16T04:01:56.875Z,100016.77
2018-06-16T04:04:59.843Z,100018.30
2018-06-16T04:08:02.775Z,100019.65
2018-06-16T04:11:05.830Z,100019.56
2018-06-16T04:14:08.762Z,100021.95
2018-06-16T04:17:16.641Z,100021.88
2018-06-16T04:20:19.582Z,100018.39
2018-06-16T04:23:22.530Z,100013.63
2018-06-16T04:26:25.471Z,100020.47
2018-06-16T04:29:28.390Z,100019.96
2018-06-16T04:32:31.328Z,100015.05
2018-06-16T04:35:34.263Z,100014.80
2018-06-16T04:38:37.241Z,100017.06
2018-06-16T04:41:40.195Z,100028.80
2018-06-16T04:44:43.108Z,100018.52
2018-06-16T04:47:47.780Z,100016.87
2018-06-16T04:50:50.760Z,100023.86
2018-06-16T04:53:53.669Z,100025.91
2018-06-16T04:56:56.658Z,100019.52
2018-06-16T04:59:59.593Z,100020.88
2018-06-16T05:03:02.521Z,100023.17
2018-06-16T05:06:05.454Z,100023.86
2018-06-16T05:09:09.945Z,100018.81
2018-06-16T05:12:12.930Z,100016.13
2018-06-16T05:15:16.978Z,100008.44
2018-06-16T05:18:19.904Z,100008.29
2018-06-16T05:21:22.853Z,100002.51
2018-06-16T05:24:25.777Z,100006.81
2018-06-16T05:27:28.698Z,100007.98
2018-06-16T05:30:31.620Z,100006.53
2018-06-16T05:33:34.584Z,100009.16
2018-06-16T05:36:37.549Z,100007.28
2018-06-16T05:39:40.498Z,100011.55
2018-06-16T05:42:43.437Z,100016.53
2018-06-16T05:45:46.380Z,100010.27
2018-06-16T05:48:49.317Z,100015.59
2018-06-16T05:51:52.519Z,100008.57
2018-06-16T05:54:55.457Z,100014.51
2018-06-16T05:57:58.373Z,100021.69
2018-06-16T06:01:01.317Z,100019.80
2018-06-16T06:04:04.320Z,100000.27
2018-06-16T06:07:07.249Z,100008.41
2018-06-16T06:10:10.282Z,100010.81
2018-06-16T06:13:13.158Z,100008.70
2018-06-16T06:16:16.113Z,100018.70
2018-06-16T06:19:19.070Z,100020.94
2018-06-16T06:22:22.129Z,100019.22
2018-06-16T06:25:25.092Z,100019.92
2018-06-16T06:28:28.056Z,100018.62
2018-06-16T06:31:30.977Z,100025.28
2018-06-16T06:34:33.923Z,100034.19
2018-06-16T06:37:37.145Z,100031.83
2018-06-16T06:40:40.131Z,100027.56
2018-06-16T06:43:43.054Z,100028.41
2018-06-16T06:46:45.986Z,100032.20
2018-06-16T06:49:48.914Z,100038.36
2018-06-16T06:52:51.871Z,100035.30
2018-06-16T06:55:54.817Z,100037.98
2018-06-16T06:58:57.779Z,100044.48
2018-06-16T07:02:00.715Z,100049.58
2018-06-16T07:05:03.962Z,100040.20
2018-06-16T07:08:06.893Z,100045.16
2018-06-16T07:11:09.833Z,100048.29
2018-06-16T07:14:12.777Z,100041.11
2018-06-16T07:17:15.717Z,100044.59
2018-06-16T07:20:18.650Z,100045.41
2018-06-16T07:23:21.618Z,100043.23
2018-06-16T07:26:24.573Z,100043.28
2018-06-16T07:29:27.531Z,100045.41
2018-06-16T07:32:30.429Z,100050.49
2018-06-16T07:35:33.373Z,100045.30
2018-06-16T07:38:36.331Z,100045.48
2018-06-16T07:41:39.281Z,100051.72
2018-06-16T07:44:42.182Z,100046.10
2018-06-16T07:47:45.121Z,100053.70
2018-06-16T07:50:48.043Z,100046.41
2018-06-16T07:53:57.822Z,100050.98
2018-06-16T07:57:00.772Z,100051.20
2018-06-16T08:00:03.854Z,100046.39
2018-06-16T08:03:06.825Z,100045.13
2018-06-16T08:06:09.795Z,100049.16
2018-06-16T08:09:12.730Z,100041.61
2018-06-16T08:12:15.673Z,100043.01
2018-06-16T08:15:18.604Z,100043.12
2018-06-16T08:18:21.516Z,100041.30
2018-06-16T08:21:24.446Z,100039.94
2018-06-16T08:24:27.481Z,100042.84
2018-06-16T08:27:30.434Z,100033.78
2018-06-16T08:30:33.452Z,100036.55
2018-06-16T08:33:36.365Z,100045.67
2018-06-16T08:36:39.324Z,100044.63
2018-06-16T08:39:42.251Z,100040.91
2018-06-16T08:42:45.206Z,100038.02
2018-06-16T08:45:48.110Z,100040.34
2018-06-16T08:48:51.015Z,100044.34
2018-06-16T08:51:54.030Z,100047.97
2018-06-16T08:54:56.984Z,100047.49
2018-06-16T08:57:59.894Z,100042.31
2018-06-16T09:01:02.861Z,100039.14
2018-06-16T09:04:05.903Z,100044.34
2018-06-16T09:07:08.892Z,100050.86
2018-06-16T09:10:11.821Z,100048.18
2018-06-16T09:13:14.796Z,100045.75
2018-06-16T09:16:17.745Z,100043.05
2018-06-16T09:19:20.690Z,100048.62
2018-06-16T09:22:23.644Z,100049.22
2018-06-16T09:25:26.685Z,100046.02
2018-06-16T09:28:29.642Z,100052.67
2018-06-16T09:31:32.585Z,100051.80
2018-06-16T09:34:35.530Z,100049.70
2018-06-16T09:37:38.452Z,100060.23
2018-06-16T09:40:41.395Z,100050.30
2018-06-16T09:43:44.318Z,100043.05
2018-06-16T09:46:47.231Z,100040.83
2018-06-16T09:49:50.274Z,100042.66
2018-06-16T09:52:53.329Z,100047.23
2018-06-16T09:55:56.265Z,100050.41
2018-06-16T09:58:59.209Z,100047.10
2018-06-16T10:02:02.192Z,100048.72
2018-06-16T10:05:05.710Z,100052.30
2018-06-16T10:08:08.648Z,100051.06
2018-06-16T10:11:11.579Z,100050.56
2018-06-16T10:14:14.521Z,100041.45
2018-06-16T10:17:17.459Z,100051.05
2018-06-16T10:20:20.379Z,100043.78
2018-06-16T10:23:23.409Z,100040.57
2018-06-16T10:26:26.370Z,100036.48
2018-06-16T10:29:29.333Z,100036.44
2018-06-16T10:32:32.222Z,100038.42
2018-06-16T10:35:35.161Z,100032.80
2018-06-16T10:38:38.086Z,100028.02
2018-06-16T10:41:41.053Z,100034.27
2018-06-16T10:44:43.993Z,100030.09
2018-06-16T10:47:46.997Z,100030.28
2018-06-16T10:50:49.927Z,100031.03
2018-06-16T10:53:52.840Z,100024.34
2018-06-16T10:56:55.875Z,100017.70
2018-06-16T10:59:58.801Z,100012.21
2018-06-16T11:03:01.727Z,100021.27
2018-06-16T11:06:04.698Z,100022.05
2018-06-16T11:09:08.738Z,100025.02
2018-06-16T11:12:11.662Z,100019.44
2018-06-16T11:15:14.605Z,100014.63
2018-06-16T11:18:17.543Z,100015.72
2018-06-16T11:21:20.477Z,100012.95
2018-06-16T11:24:23.370Z,100013.28
2018-06-16T11:27:26.396Z,100016.73
2018-06-16T11:30:29.360Z,100005.45
2018-06-16T11:33:32.275Z,100001.78
2018-06-16T11:36:35.225Z,99996.61
2018-06-16T11:39:38.158Z,99995.98
2018-06-16T11:42:41.069Z,99993.16
2018-06-16T11:45:44.016Z,99995.97
2018-06-16T11:48:47.084Z,99988.98
2018-06-16T11:51:50.062Z,99994.30
2018-06-16T11:54:53.127Z,99991.35
2018-06-16T11:57:56.103Z,99987.42
2018-06-16T12:00:59.017Z,99991.83
2018-06-16T12:04:01.965Z,99990.55
2018-06-16T12:07:05.214Z,99983.52
2018-06-16T12:10:08.177Z,99982.27
2018-06-16T12:13:11.091Z,99981.97
2018-06-16T12:16:14.125Z,99981.95
2018-06-16T12:19:17.082Z,99982.48
2018-06-16T12:22:20.013Z,99987.66
2018-06-16T12:25:22.952Z,99987.27
2018-06-16T12:28:26.008Z,99976.06
2018-06-16T12:31:28.946Z,99973.20
2018-06-16T12:34:31.902Z,99968.36
2018-06-16T12:37:34.822Z,99963.52
2018-06-16T12:40:37.789Z,99961.48
2018-06-16T12:43:40.744Z,99950.48
2018-06-16T12:46:43.654Z,99949.56
2018-06-16T12:49:46.572Z,99948.93
2018-06-16T12:52:49.504Z,99947.27
2018-06-16T12:55:52.445Z,99945.61
2018-06-16T12:58:55.392Z,99938.33
2018-06-16T13:01:58.330Z,99936.53
2018-06-16T13:05:01.289Z,99930.83
2018-06-16T13:08:04.231Z,99925.59
2018-06-16T13:11:07.200Z,99928.02
2018-06-16T13:14:10.133Z,99937.55
2018-06-16T13:17:13.073Z,99931.33
2018-06-16T13:20:16.016Z,99932.05
2018-06-16T13:23:18.965Z,99935.69
2018-06-16T13:26:21.883Z,99932.52
2018-06-16T13:29:24.833Z,99925.07
2018-06-16T13:32:27.719Z,99928.48
2018-06-16T13:35:30.680Z,99924.16
2018-06-16T13:38:33.654Z,99915.95
2018-06-16T13:41:36.612Z,99925.72
2018-06-16T13:44:39.566Z,99918.05
2018-06-16T13:47:42.515Z,99924.84
2018-06-16T13:50:45.467Z,99926.88
2018-06-16T13:53:48.437Z,99922.69
2018-06-16T13:56:51.407Z,99926.13
2018-06-16T13:59:54.384Z,99924.46
2018-06-16T14:02:57.339Z,99930.33
2018-06-16T14:06:00.542Z,99922.40
2018-06-16T14:09:06.441Z,99921.84
2018-06-16T14:12:09.473Z,99919.09
2018-06-16T14:15:12.828Z,99918.31
2018-06-16T14:18:15.786Z,99907.80
2018-06-16T14:21:18.745Z,99923.83
2018-06-16T14:24:21.710Z,99921.66
2018-06-16T14:27:24.653Z,99920.75
2018-06-16T14:30:27.786Z,99912.57
2018-06-16T14:33:30.794Z,99917.22
2018-06-16T14:36:33.784Z,99907.19
2018-06-16T14:39:36.710Z,99904.56
2018-06-16T14:42:39.685Z,99893.50
2018-06-16T14:45:42.639Z,99888.95
2018-06-16T14:48:45.600Z,99881.53
2018-06-16T14:51:49.719Z,99881.31
2018-06-16T14:54:58.298Z,99875.23
2018-06-16T14:58:04.403Z,99877.91
2018-06-16T15:01:11.382Z,99876.98
2018-06-16T15:04:16.121Z,99879.77
2018-06-16T15:07:21.552Z,99874.97
2018-06-16T15:10:27.456Z,99879.86
2018-06-16T15:13:36.090Z,99878.23
2018-06-16T15:16:41.484Z,99878.49
2018-06-16T15:19:47.116Z,99868.52
2018-06-16T15:22:53.398Z,99872.84
2018-06-16T15:25:58.921Z,99871.42
2018-06-16T15:29:03.326Z,99875.64
2018-06-16T15:32:08.863Z,99874.70
2018-06-16T15:35:14.257Z,99870.48
2018-06-16T15:38:20.683Z,99869.28
2018-06-16T15:41:25.361Z,99864.99
2018-06-16T15:44:29.777Z,99857.73
2018-06-16T15:47:35.419Z,99853.61
2018-06-16T15:50:41.284Z,99856.09
2018-06-16T15:53:47.757Z,99855.45
2018-06-16T15:56:52.938Z,99850.17
2018-06-16T15:59:59.218Z,99849.63
2018-06-16T16:03:04.510Z,99845.23
2018-06-16T16:06:09.537Z,99846.34
2018-06-16T16:09:15.261Z,99845.55
2018-06-16T16:12:20.732Z,99843.93
2018-06-16T16:15:25.769Z,99843.79
2018-06-16T16:18:31.850Z,99842.06
2018-06-16T16:21:38.816Z,99837.70
2018-06-16T16:24:43.513Z,99827.46
2018-06-16T16:27:48.732Z,99832.25
2018-06-16T16:30:53.430Z,99828.38
2018-06-16T16:33:58.549Z,99822.30
2018-06-16T16:37:02.978Z,99825.59
2018-06-16T16:40:08.861Z,99827.17
2018-06-16T16:43:13.338Z,99824.91
2018-06-16T16:46:17.349Z,99824.25
2018-06-16T16:49:23.113Z,99827.97
2018-06-16T16:52:28.097Z,99775.16
2018-06-16T16:55:32.333Z,99831.35
2018-06-16T16:58:37.267Z,99832.25
2018-06-16T17:01:42.090Z,99833.66
2018-06-16T17:04:48.204Z,99839.95
2018-06-16T17:07:53.093Z,99850.23
2018-06-16T17:10:57.450Z,99849.40
2018-06-16T17:14:02.234Z,99850.80
2018-06-16T17:17:07.857Z,99853.42
2018-06-16T17:20:12.474Z,99881.97
2018-06-16T17:23:16.469Z,99903.72
2018-06-16T17:26:52.127Z,99905.81
2018-06-16T17:29:56.726Z,99914.90
2018-06-16T17:33:01.119Z,99922.83
2018-06-16T17:36:06.474Z,99918.24
2018-06-16T17:39:11.137Z,99921.89
2018-06-16T17:42:16.179Z,99918.13
2018-06-16T17:45:20.926Z,99919.23
2018-06-16T17:48:25.834Z,99926.66
2018-06-16T17:51:31.645Z,99926.23
2018-06-16T17:54:37.231Z,99920.59
2018-06-16T17:57:41.681Z,99915.70
2018-06-16T18:00:46.190Z,99916.49
2018-06-16T18:03:51.030Z,99903.58
2018-06-16T18:06:55.979Z,99906.28
2018-06-16T18:10:00.938Z,99901.23
2018-06-16T18:13:05.378Z,99903.83
2018-06-16T18:16:10.326Z,99906.72
2018-06-16T18:19:15.068Z,99906.70
2018-06-16T18:22:20.315Z,99901.52
2018-06-16T18:25:25.738Z,99908.30
2018-06-16T18:28:33.206Z,99907.28
2018-06-16T18:31:37.172Z,99914.40
2018-06-16T18:34:41.365Z,99914.28
2018-06-16T18:37:45.456Z,99910.23
2018-06-16T18:40:50.370Z,99910.44
2018-06-16T18:43:55.317Z,99911.80
2018-06-16T18:47:00.225Z,99917.78
2018-06-16T18:50:05.099Z,99910.03
2018-06-16T18:53:09.807Z,99913.52
2018-06-16T18:56:16.832Z,99911.80
2018-06-16T18:59:21.555Z,99914.40
2018-06-16T19:02:27.140Z,99920.92
2018-06-16T19:05:32.861Z,99929.26
2018-06-16T19:08:37.943Z,99932.44
2018-06-16T19:11:43.460Z,99938.65
2018-06-16T19:14:48.410Z,99949.56
2018-06-16T19:17:53.194Z,99953.85
2018-06-16T19:20:58.506Z,99965.87
2018-06-16T19:24:02.727Z,99973.91
2018-06-16T19:27:07.261Z,99977.82
2018-06-16T19:30:11.817Z,99982.22
2018-06-16T19:33:18.493Z,99989.40
2018-06-16T19:36:23.437Z,99991.66
2018-06-16T19:43:13.215Z,99985.80
2018-06-16T19:46:17.692Z,99985.13
2018-06-16T19:49:22.607Z,99980.92
2018-06-16T19:52:28.029Z,99985.41
2018-06-16T19:55:32.641Z,99978.33
2018-06-16T19:58:37.151Z,99982.86
2018-06-16T20:01:41.763Z,99985.45
2018-06-16T20:04:48.391Z,99984.11
2018-06-16T20:07:53.612Z,99986.33
2018-06-16T20:10:58.516Z,99994.27
2018-06-16T20:14:03.123Z,99994.84
2018-06-16T20:17:07.170Z,99997.98
2018-06-16T20:20:11.705Z,99996.20
2018-06-16T20:23:15.723Z,100002.73
2018-06-16T20:26:20.125Z,100000.19
2018-06-16T20:29:24.108Z,100005.05
2018-06-16T20:32:29.047Z,100011.30
2018-06-16T20:35:33.668Z,100020.06
2018-06-16T20:38:37.799Z,100011.05
2018-06-16T20:41:44.661Z,100021.22
2018-06-16T20:44:49.336Z,100010.95
2018-06-16T20:47:53.981Z,100009.42
2018-06-16T20:50:58.400Z,100015.05
2018-06-16T20:54:03.660Z,100016.91
2018-06-16T20:57:08.676Z,100018.77
2018-06-16T21:00:13.167Z,100025.47
2018-06-16T21:03:17.105Z,100028.23
2018-06-16T21:06:21.165Z,100032.88
2018-06-16T21:09:25.143Z,100029.06
2018-06-16T21:12:29.335Z,100031.30
2018-06-16T21:15:33.394Z,100032.94
2018-06-16T21:18:37.528Z,100041.69
2018-06-16T21:21:41.417Z,100033.45
2018-06-16T21:25:48.951Z,100032.97
2018-06-16T21:28:52.924Z,100035.78
2018-06-16T21:31:58.028Z,100022.54
2018-06-16T21:35:02.525Z,100032.11
2018-06-16T21:38:06.547Z,100038.47
2018-06-16T21:41:11.594Z,100041.23
2018-06-16T21:44:15.758Z,100030.69
2018-06-16T21:47:19.874Z,100047.32
2018-06-16T21:50:23.988Z,100036.72
2018-06-16T21:53:28.755Z,100039.34
2018-06-16T21:56:32.598Z,100036.55
2018-06-16T21:59:37.398Z,100041.34
2018-06-16T22:02:41.804Z,100042.02
2018-06-16T22:05:46.434Z,100040.98
2018-06-16T22:08:54.063Z,100046.45
2018-06-16T22:11:58.264Z,100047.71
2018-06-16T22:15:02.237Z,100045.62
2018-06-16T22:18:07.668Z,100048.66
2018-06-16T22:21:11.622Z,100049.45
2018-06-16T22:24:15.516Z,100045.42
2018-06-16T22:27:19.599Z,100039.00
2018-06-16T22:30:23.664Z,100042.77
2018-06-16T22:33:27.936Z,100043.99
2018-06-16T22:36:32.492Z,100050.10
2018-06-16T22:39:36.534Z,100049.36
2018-06-16T22:42:40.779Z,100053.66
2018-06-16T22:45:44.711Z,100047.20
2018-06-16T22:48:49.563Z,100045.08
2018-06-16T22:51:53.747Z,100045.20
2018-06-16T22:54:57.634Z,100045.38
2018-06-16T22:58:02.796Z,100041.47
2018-06-16T23:01:07.229Z,100040.13
2018-06-16T23:04:11.506Z,100043.00
2018-06-16T23:07:15.399Z,100046.07
2018-06-16T23:10:19.326Z,100047.80
2018-06-16T23:13:23.194Z,100040.39
2018-06-16T23:16:26.990Z,100041.77
2018-06-16T23:19:30.828Z,100042.81
2018-06-16T23:22:34.643Z,100041.65
2018-06-16T23:25:39.106Z,100046.07
2018-06-16T23:28:43.731Z,100050.70
2018-06-16T23:31:48.985Z,100050.67
2018-06-16T23:34:53.157Z,100046.42
2018-06-16T23:37:57.615Z,100047.72
2018-06-16T23:41:01.618Z,100042.91
2018-06-16T23:44:05.843Z,100051.36
2018-06-16T23:47:09.690Z,100049.72
2018-06-16T23:50:13.405Z,100055.39
2018-06-16T23:53:17.293Z,100056.16
2018-06-16T23:56:21.084Z,100055.88
2018-06-16T23:59:24.985Z,100061.54
